Time;durP1;ratioP1;P1;durP2;ratioP2;P2;SDS_P1;SDS_P2;PMS_P1;PMS_P2;Temp;Humidity;BMP_temperature;BMP_pressure;BME280_temperature;BME280_humidity;BME280_pressure;Samples;Min_cycle;Max_cycle;Signal;HPM_P1;HPM_P2
2022/01/02 00:01:25;;;;;;;19.52;11.30;;;21.50;80.90;;;;;;1812985;78;21110;-79
2022/01/02 00:03:58;;;;;;;16.77;10.05;;;21.50;81.00;;;;;;1802979;78;21233;-80
2022/01/02 00:06:32;;;;;;;14.07;9.78;;;21.50;80.90;;;;;;1812158;77;21142;-81
2022/01/02 00:09:05;;;;;;;14.10;9.50;;;21.50;80.90;;;;;;1868308;76;21152;-81
2022/01/02 00:11:38;;;;;;;14.78;10.20;;;21.50;81.00;;;;;;1832567;76;21570;-81
2022/01/02 00:14:12;;;;;;;15.18;10.25;;;21.50;80.80;;;;;;1826940;76;21165;-82
2022/01/02 00:16:43;;;;;;;16.40;9.98;;;21.50;80.60;;;;;;1851531;76;21732;-81
2022/01/02 00:19:29;;;;;;;14.30;9.53;;;21.60;80.30;;;;;;1867414;76;21208;-81
2022/01/02 00:21:48;;;;;;;20.02;9.08;;;21.60;80.50;;;;;;1824936;76;21108;-82
2022/01/02 00:24:21;;;;;;;13.48;9.40;;;21.60;80.40;;;;;;1839907;76;21236;-81
2022/01/02 00:26:51;;;;;;;14.35;9.40;;;21.70;80.30;;;;;;1847561;76;21570;-81
2022/01/02 00:29:23;;;;;;;14.58;8.93;;;21.70;80.10;;;;;;1835384;77;21147;-81
2022/01/02 00:31:55;;;;;;;16.02;9.65;;;21.70;80.00;;;;;;1828178;77;21167;-81
2022/01/02 00:34:27;;;;;;;12.37;9.40;;;21.70;80.30;;;;;;1839969;77;21288;-81
2022/01/02 00:36:57;;;;;;;12.55;8.93;;;21.70;80.00;;;;;;1837451;77;21551;-80
2022/01/02 00:39:28;;;;;;;17.30;9.33;;;21.80;80.00;;;;;;1823740;77;21171;-80
2022/01/02 00:42:01;;;;;;;12.98;8.88;;;21.80;79.70;;;;;;1833219;77;21241;-82
2022/01/02 00:44:34;;;;;;;15.25;8.53;;;21.90;79.30;;;;;;1831235;77;21166;-82
2022/01/02 00:47:06;;;;;;;13.05;9.18;;;22.00;78.40;;;;;;1834703;77;21644;-82
2022/01/02 00:49:40;;;;;;;13.38;8.55;;;22.00;78.40;;;;;;1836320;77;21644;-82
2022/01/02 00:52:13;;;;;;;11.43;8.58;;;22.00;78.50;;;;;;1837628;77;21609;-82
2022/01/02 00:54:46;;;;;;;13.22;9.30;;;22.00;78.30;;;;;;1829807;77;21214;-82
2022/01/02 00:57:19;;;;;;;16.97;10.13;;;22.10;78.50;;;;;;1823536;77;21701;-82
2022/01/02 00:59:52;;;;;;;12.15;7.92;;;22.10;78.40;;;;;;1840529;77;21147;-82
2022/01/02 01:02:25;;;;;;;12.28;7.90;;;22.10;78.10;;;;;;1837324;77;21184;-82
2022/01/02 01:04:59;;;;;;;12.85;8.18;;;22.20;78.20;;;;;;1833342;77;21102;-82
2022/01/02 01:07:32;;;;;;;16.20;8.10;;;22.20;78.00;;;;;;1817772;77;21074;-83
2022/01/02 01:10:06;;;;;;;13.70;11.18;;;22.20;77.80;;;;;;1821399;77;21217;-83
2022/01/02 01:12:36;;;;;;;15.28;8.65;;;22.20;77.90;;;;;;1853641;76;21104;-82
2022/01/02 01:15:08;;;;;;;11.70;8.65;;;22.30;77.60;;;;;;1843629;76;21226;-82
2022/01/02 01:17:40;;;;;;;11.35;7.92;;;22.30;77.80;;;;;;1833954;76;21259;-82
2022/01/02 01:20:13;;;;;;;12.23;8.60;;;22.30;77.90;;;;;;1830231;76;21227;-82
2022/01/02 01:22:45;;;;;;;10.58;7.70;;;22.40;78.00;;;;;;1836271;77;21702;-83
2022/01/02 01:25:18;;;;;;;14.00;8.88;;;22.50;77.60;;;;;;1817189;77;21200;-82
2022/01/02 01:27:51;;;;;;;12.23;7.85;;;22.60;77.20;;;;;;1796907;79;21287;-83
2022/01/02 01:30:25;;;;;;;10.80;6.92;;;22.70;77.20;;;;;;1820002;78;21663;-82
2022/01/02 01:32:56;;;;;;;11.12;6.95;;;22.80;76.60;;;;;;1817581;78;21406;-82
2022/01/02 01:35:26;;;;;;;12.13;7.33;;;22.90;76.00;;;;;;1817036;77;22629;-82
2022/01/02 01:37:57;;;;;;;8.88;6.78;;;23.00;75.90;;;;;;1857344;75;21215;-82
2022/01/02 01:40:30;;;;;;;10.15;6.80;;;23.10;75.50;;;;;;1852087;74;21196;-82
2022/01/02 01:43:03;;;;;;;13.32;8.25;;;23.10;74.90;;;;;;1851408;76;21198;-81
2022/01/02 01:45:33;;;;;;;13.08;7.17;;;23.20;74.30;;;;;;1810787;78;21247;-82
2022/01/02 01:48:07;;;;;;;11.75;7.78;;;23.30;74.30;;;;;;1842510;77;21277;-83
2022/01/02 01:50:40;;;;;;;12.00;6.92;;;23.30;73.90;;;;;;1807544;78;21172;-82
2022/01/02 01:53:11;;;;;;;9.73;6.78;;;23.40;73.80;;;;;;1815997;78;21097;-82
2022/01/02 01:55:42;;;;;;;12.13;8.43;;;23.40;73.60;;;;;;1817027;78;21642;-84
2022/01/02 01:58:13;;;;;;;9.98;7.08;;;23.40;73.70;;;;;;1816618;77;21166;-83
2022/01/02 02:00:44;;;;;;;9.98;6.65;;;23.40;73.20;;;;;;1812202;78;21303;-83
2022/01/02 02:03:16;;;;;;;13.72;7.20;;;23.40;72.90;;;;;;1827304;77;21168;-83
2022/01/02 02:05:47;;;;;;;10.28;6.72;;;23.40;73.20;;;;;;1819650;78;21157;-83
2022/01/02 02:08:19;;;;;;;11.38;6.83;;;23.40;73.20;;;;;;1817509;77;21111;-84
2022/01/02 02:10:55;;;;;;;12.10;6.20;;;23.50;73.00;;;;;;1821508;78;21104;-82
2022/01/02 02:13:22;;;;;;;9.23;6.92;;;23.50;73.00;;;;;;1817955;77;21198;-83
2022/01/02 02:15:53;;;;;;;11.90;7.03;;;23.50;72.30;;;;;;1809956;77;21674;-83
2022/01/02 02:18:25;;;;;;;9.48;6.78;;;23.50;72.20;;;;;;1812460;78;21683;-83
2022/01/02 02:20:56;;;;;;;9.98;6.08;;;23.50;72.20;;;;;;1814841;78;21172;-83
2022/01/02 02:23:26;;;;;;;10.50;6.70;;;23.50;72.20;;;;;;1805782;78;21308;-82
2022/01/02 02:25:57;;;;;;;11.18;7.15;;;23.60;72.50;;;;;;1805691;79;21176;-83
2022/01/02 02:28:28;;;;;;;10.40;7.28;;;23.60;72.20;;;;;;1840633;77;21591;-82
2022/01/02 02:30:59;;;;;;;10.32;6.85;;;23.70;72.00;;;;;;1827279;76;21151;-83
2022/01/02 02:33:31;;;;;;;11.22;6.47;;;23.70;71.70;;;;;;1814496;77;22309;-81
2022/01/02 02:36:01;;;;;;;9.10;6.67;;;23.70;71.70;;;;;;1817365;78;21730;-82
2022/01/02 02:38:32;;;;;;;7.28;5.35;;;23.70;71.80;;;;;;1831687;77;21177;-81
2022/01/02 02:41:03;;;;;;;10.43;5.28;;;23.70;70.60;;;;;;1815803;77;21245;-81
2022/01/02 02:51:14;;;;;;;6.85;4.95;;;23.90;69.80;;;;;;1834858;77;21166;-82
2022/01/02 02:53:47;;;;;;;6.50;4.83;;;23.90;68.70;;;;;;1824691;77;22305;-82
2022/01/02 02:56:29;;;;;;;9.08;4.50;;;24.00;68.80;;;;;;1855873;74;21177;-81
2022/01/02 02:58:57;;;;;;;9.93;5.30;;;24.00;69.90;;;;;;1844780;76;21155;-82
2022/01/02 03:01:28;;;;;;;8.60;5.40;;;24.00;68.80;;;;;;1849008;76;21130;-82
2022/01/02 03:03:59;;;;;;;7.15;5.35;;;24.10;68.60;;;;;;1810031;77;21217;-82
2022/01/02 03:06:30;;;;;;;8.55;5.40;;;24.10;68.50;;;;;;1820902;78;21770;-82
2022/01/02 03:09:08;;;;;;;7.03;5.15;;;24.20;68.20;;;;;;1838645;76;21620;-82
2022/01/02 03:11:33;;;;;;;8.53;5.62;;;24.20;67.90;;;;;;1802306;78;21199;-82
2022/01/02 03:14:05;;;;;;;7.20;5.50;;;24.20;67.80;;;;;;1803006;77;21242;-80
2022/01/02 03:16:36;;;;;;;7.28;5.10;;;24.20;67.90;;;;;;1809366;78;21164;-82
2022/01/02 03:19:08;;;;;;;8.40;5.12;;;24.30;68.00;;;;;;1820183;77;21103;-82
2022/01/02 03:21:39;;;;;;;7.70;5.67;;;24.40;67.60;;;;;;1813973;77;21263;-82
2022/01/02 03:24:09;;;;;;;8.30;5.83;;;24.40;67.20;;;;;;1817960;77;21628;-82
2022/01/02 03:26:40;;;;;;;7.97;5.50;;;24.50;67.30;;;;;;1825573;77;21130;-82
2022/01/02 03:29:11;;;;;;;7.12;4.87;;;24.60;67.00;;;;;;1830654;77;21539;-82
2022/01/02 03:31:41;;;;;;;8.10;5.20;;;24.60;66.50;;;;;;1839023;77;21629;-81
2022/01/02 03:34:12;;;;;;;6.87;5.30;;;24.70;66.50;;;;;;1826487;77;21600;-82
2022/01/02 03:36:43;;;;;;;9.15;5.80;;;24.80;66.70;;;;;;1821591;77;21211;-81
2022/01/02 03:39:14;;;;;;;8.40;4.90;;;24.80;66.00;;;;;;1802440;78;21549;-80
2022/01/02 03:41:45;;;;;;;8.45;5.92;;;24.90;66.40;;;;;;1812779;78;21202;-82
2022/01/02 03:44:16;;;;;;;7.85;5.12;;;24.90;65.60;;;;;;1810181;78;21102;-82
2022/01/02 03:46:57;;;;;;;10.88;6.15;;;25.00;66.00;;;;;;1810300;78;21199;-84
2022/01/02 03:49:25;;;;;;;8.78;5.80;;;25.00;65.30;;;;;;1819496;77;21221;-83
2022/01/02 03:51:59;;;;;;;9.80;5.70;;;25.10;65.20;;;;;;1826616;77;21110;-83
2022/01/02 03:54:32;;;;;;;8.55;5.67;;;25.20;65.50;;;;;;1827338;77;21183;-82
2022/01/02 03:57:09;;;;;;;8.43;6.37;;;25.30;65.00;;;;;;1809936;77;21189;-82
2022/01/02 03:59:56;;;;;;;11.28;7.00;;;25.40;64.80;;;;;;1820585;77;21244;-83
2022/01/02 04:02:18;;;;;;;8.65;7.47;;;25.50;65.00;;;;;;1823664;77;21660;-81
2022/01/02 04:04:49;;;;;;;8.73;5.83;;;25.60;64.70;;;;;;1845726;77;21142;-84
2022/01/02 04:07:24;;;;;;;8.55;5.53;;;25.70;63.80;;;;;;1841156;77;21166;-84
2022/01/02 04:10:00;;;;;;;7.72;5.20;;;25.80;63.30;;;;;;1834321;77;21618;-80
2022/01/02 04:12:30;;;;;;;9.18;5.25;;;25.90;63.10;;;;;;1805759;78;21254;-82
2022/01/02 04:15:01;;;;;;;7.97;5.03;;;26.00;63.00;;;;;;1799592;78;21117;-81
2022/01/02 04:17:39;;;;;;;7.22;5.25;;;26.20;62.50;;;;;;1843881;77;21575;-82
2022/01/02 04:20:17;;;;;;;8.15;5.17;;;26.30;61.80;;;;;;1839789;76;21161;-83
2022/01/02 04:22:48;;;;;;;7.45;4.95;;;26.30;61.90;;;;;;1813178;77;21177;-81
2022/01/02 04:25:19;;;;;;;7.50;4.95;;;26.40;61.70;;;;;;1808084;78;21200;-82
2022/01/02 04:27:50;;;;;;;7.25;4.50;;;26.50;61.40;;;;;;1795189;79;21238;-83
2022/01/02 04:30:20;;;;;;;8.83;4.65;;;26.60;60.90;;;;;;1812098;78;21567;-82
2022/01/02 04:33:04;;;;;;;8.28;4.40;;;26.70;60.80;;;;;;1815736;77;21231;-83
2022/01/02 04:35:32;;;;;;;6.97;4.60;;;26.80;60.90;;;;;;1837677;75;21148;-81
2022/01/02 04:38:03;;;;;;;6.42;4.90;;;26.80;59.80;;;;;;1807154;76;21559;-82
2022/01/02 04:40:34;;;;;;;6.33;4.40;;;26.90;59.30;;;;;;1843454;76;21126;-82
2022/01/02 04:43:04;;;;;;;9.65;4.72;;;27.00;59.70;;;;;;1846331;76;21135;-82
2022/01/02 04:45:35;;;;;;;7.97;4.40;;;27.10;59.50;;;;;;1853747;76;21149;-83
2022/01/02 04:48:06;;;;;;;7.58;4.83;;;27.20;59.50;;;;;;1842619;76;21169;-82
2022/01/02 04:50:37;;;;;;;6.70;4.17;;;27.40;59.10;;;;;;1814132;77;21087;-82
2022/01/02 04:53:08;;;;;;;6.85;4.28;;;27.40;58.60;;;;;;1839664;76;21622;-83
2022/01/02 04:55:39;;;;;;;9.08;4.90;;;27.50;59.00;;;;;;1816418;77;22609;-82
2022/01/02 04:58:09;;;;;;;5.90;4.65;;;27.60;58.80;;;;;;1843458;76;21669;-81
2022/01/02 05:00:40;;;;;;;8.73;4.67;;;27.70;58.50;;;;;;1814540;76;21718;-82
2022/01/02 05:03:11;;;;;;;6.40;4.75;;;27.80;58.20;;;;;;1831399;75;21086;-83
2022/01/02 05:05:42;;;;;;;7.40;4.72;;;27.90;57.60;;;;;;1813209;78;21304;-82
2022/01/02 05:08:13;;;;;;;7.40;4.75;;;27.90;57.80;;;;;;1856299;76;21616;-82
2022/01/02 05:10:43;;;;;;;7.40;4.00;;;28.00;58.10;;;;;;1787066;78;21759;-82
2022/01/02 05:13:14;;;;;;;5.85;4.50;;;28.10;56.60;;;;;;1804552;77;21656;-83
2022/01/02 05:15:44;;;;;;;5.70;4.53;;;28.10;56.60;;;;;;1795808;78;21172;-83
2022/01/02 05:18:16;;;;;;;9.45;4.85;;;28.20;56.70;;;;;;1837187;77;21299;-84
2022/01/02 05:20:46;;;;;;;7.17;5.08;;;28.30;57.00;;;;;;1836398;77;21634;-82
2022/01/02 05:23:19;;;;;;;6.62;4.22;;;28.40;57.00;;;;;;1833163;76;21138;-83
2022/01/02 05:25:50;;;;;;;9.23;4.97;;;28.50;56.50;;;;;;1815437;76;21154;-82
2022/01/02 05:28:20;;;;;;;7.42;5.00;;;28.50;56.00;;;;;;1839086;76;21676;-83
2022/01/02 05:30:51;;;;;;;6.80;4.25;;;28.50;56.50;;;;;;1828193;76;21645;-84
2022/01/02 05:33:22;;;;;;;7.62;4.25;;;28.50;56.00;;;;;;1814335;77;21691;-84
2022/01/02 05:35:53;;;;;;;8.33;5.03;;;28.60;55.90;;;;;;1822946;77;21245;-84
2022/01/02 05:38:24;;;;;;;7.33;4.67;;;28.60;55.50;;;;;;1818572;77;21203;-84
2022/01/02 05:40:56;;;;;;;7.17;4.55;;;28.60;55.80;;;;;;1812817;76;21651;-82
2022/01/02 05:43:27;;;;;;;5.60;4.45;;;28.70;55.90;;;;;;1842191;77;21165;-82
2022/01/02 05:46:03;;;;;;;6.47;4.42;;;28.70;55.30;;;;;;1820909;76;21201;-82
2022/01/02 05:48:31;;;;;;;7.47;4.20;;;28.80;55.80;;;;;;1844484;76;21230;-82
2022/01/02 05:51:03;;;;;;;8.73;4.33;;;28.80;54.80;;;;;;1835863;76;21119;-82
2022/01/02 05:53:34;;;;;;;8.05;5.00;;;28.90;55.40;;;;;;1842232;77;21183;-82
2022/01/02 05:56:05;;;;;;;9.88;5.83;;;28.90;55.30;;;;;;1808052;77;21165;-81
2022/01/02 05:58:36;;;;;;;5.95;4.58;;;29.00;54.60;;;;;;1822597;76;21443;-81
2022/01/02 06:01:07;;;;;;;7.28;4.92;;;29.00;54.90;;;;;;1806293;78;21151;-82
2022/01/02 06:03:37;;;;;;;9.70;5.37;;;29.00;55.30;;;;;;1800129;78;21158;-81
2022/01/02 06:06:08;;;;;;;8.28;5.58;;;29.10;54.70;;;;;;1801986;78;21169;-82
2022/01/02 06:08:39;;;;;;;8.10;4.78;;;29.10;53.80;;;;;;1803418;78;22166;-82
2022/01/02 06:11:10;;;;;;;6.12;4.15;;;29.10;54.10;;;;;;1851650;76;21075;-81
2022/01/02 06:13:42;;;;;;;6.45;4.25;;;29.10;54.50;;;;;;1856365;76;21177;-82
2022/01/02 06:16:14;;;;;;;6.75;4.70;;;29.10;53.90;;;;;;1851588;76;21245;-82
2022/01/02 06:18:45;;;;;;;6.22;3.87;;;29.20;54.10;;;;;;1849776;76;21146;-82
2022/01/02 06:21:15;;;;;;;6.95;4.70;;;29.20;54.20;;;;;;1847867;76;21187;-82
2022/01/02 06:23:46;;;;;;;7.22;4.37;;;29.20;53.60;;;;;;1845676;77;21303;-82
2022/01/02 06:26:17;;;;;;;6.75;4.28;;;29.30;54.20;;;;;;1844750;76;21262;-82
2022/01/02 06:28:48;;;;;;;6.90;4.17;;;29.30;54.30;;;;;;1793074;77;21247;-81
2022/01/02 06:31:18;;;;;;;8.55;3.80;;;29.40;54.10;;;;;;1850377;76;21161;-82
2022/01/02 06:33:50;;;;;;;7.35;3.95;;;29.40;54.80;;;;;;1855962;76;21598;-82
2022/01/02 06:36:21;;;;;;;6.47;4.20;;;29.40;54.40;;;;;;1851120;76;21622;-83
2022/01/02 06:38:52;;;;;;;5.28;3.90;;;29.40;53.40;;;;;;1847511;76;21089;-82
2022/01/02 06:41:23;;;;;;;6.03;4.10;;;29.40;53.20;;;;;;1849353;76;21223;-83
2022/01/02 06:43:53;;;;;;;7.05;3.47;;;29.40;53.30;;;;;;1828709;76;21207;-82
2022/01/02 06:46:24;;;;;;;5.37;3.90;;;29.40;53.60;;;;;;1846262;77;21174;-83
2022/01/02 06:48:55;;;;;;;6.37;4.15;;;29.40;54.20;;;;;;1847688;76;21606;-82
2022/01/02 06:51:27;;;;;;;7.12;4.00;;;29.40;53.30;;;;;;1807178;78;21080;-83
2022/01/02 06:53:58;;;;;;;5.95;4.12;;;29.40;53.80;;;;;;1845791;76;21662;-83
2022/01/02 06:56:28;;;;;;;5.85;4.10;;;29.40;53.90;;;;;;1860455;76;21186;-82
2022/01/02 06:58:59;;;;;;;6.10;4.60;;;29.40;53.70;;;;;;1821127;76;21149;-84
2022/01/02 07:01:30;;;;;;;7.83;4.17;;;29.40;53.10;;;;;;1812752;77;22259;-82
2022/01/02 07:04:01;;;;;;;9.65;4.75;;;29.50;53.40;;;;;;1810702;78;21570;-83
2022/01/02 07:06:32;;;;;;;5.35;4.12;;;29.50;52.20;;;;;;1802126;78;21588;-82
2022/01/02 07:09:03;;;;;;;5.62;4.25;;;29.60;53.10;;;;;;1807538;78;21174;-83
2022/01/02 07:11:34;;;;;;;6.75;4.28;;;29.70;52.60;;;;;;1808519;77;21179;-82
2022/01/02 07:14:05;;;;;;;5.70;3.67;;;29.70;53.00;;;;;;1818960;77;21171;-82
2022/01/02 07:16:35;;;;;;;4.12;3.40;;;29.60;52.10;;;;;;1839377;77;21664;-82
2022/01/02 07:19:06;;;;;;;4.28;3.47;;;29.60;52.80;;;;;;1820360;77;21101;-82
2022/01/02 07:21:39;;;;;;;5.20;3.47;;;29.40;52.70;;;;;;1842286;77;21602;-82
2022/01/02 07:24:09;;;;;;;7.37;3.90;;;29.30;52.40;;;;;;1833737;76;21168;-83
2022/01/02 07:26:39;;;;;;;7.45;3.77;;;29.20;53.30;;;;;;1852179;76;21093;-82
2022/01/02 07:29:13;;;;;;;6.22;3.90;;;29.20;53.60;;;;;;1848008;76;21650;-82
2022/01/02 07:31:44;;;;;;;6.53;4.40;;;29.10;53.90;;;;;;1857155;76;21272;-83
2022/01/02 07:34:14;;;;;;;6.75;4.10;;;29.10;54.30;;;;;;1860504;76;21095;-83
2022/01/02 07:36:45;;;;;;;5.72;3.85;;;29.20;53.60;;;;;;1814897;77;21102;-84
2022/01/02 07:39:16;;;;;;;5.12;3.77;;;29.30;53.40;;;;;;1811408;78;21180;-82
2022/01/02 07:41:47;;;;;;;6.55;3.45;;;29.40;53.00;;;;;;1812632;78;21112;-82
2022/01/02 07:44:18;;;;;;;7.58;3.92;;;29.40;52.70;;;;;;1813228;78;21100;-83
2022/01/02 07:46:48;;;;;;;5.37;3.98;;;29.40;53.10;;;;;;1805170;77;21709;-83
2022/01/02 07:49:19;;;;;;;6.05;3.58;;;29.40;52.70;;;;;;1785004;80;21210;-83
2022/01/02 07:51:50;;;;;;;9.35;3.62;;;29.50;53.00;;;;;;1774770;79;21124;-83
2022/01/02 07:54:20;;;;;;;6.00;4.20;;;29.50;53.00;;;;;;1839740;77;21174;-82
2022/01/02 07:56:51;;;;;;;7.87;5.37;;;29.50;52.80;;;;;;1851186;76;21107;-83
2022/01/02 07:59:22;;;;;;;9.25;5.97;;;29.50;52.80;;;;;;1820067;76;21595;-82
2022/01/02 08:01:54;;;;;;;7.97;4.55;;;29.40;52.40;;;;;;1855092;76;21181;-82
2022/01/02 08:04:25;;;;;;;6.90;4.30;;;29.40;53.10;;;;;;1857768;76;21550;-82
2022/01/02 08:06:56;;;;;;;5.30;4.10;;;29.30;52.90;;;;;;1842954;76;21216;-82
2022/01/02 08:09:27;;;;;;;5.58;4.00;;;29.20;53.10;;;;;;1851830;76;21109;-82
2022/01/02 08:11:58;;;;;;;7.53;4.25;;;29.20;52.70;;;;;;1845408;76;21184;-82
2022/01/02 08:14:28;;;;;;;7.00;3.80;;;29.00;53.00;;;;;;1834102;76;21148;-82
2022/01/02 08:16:59;;;;;;;5.42;4.15;;;28.90;53.50;;;;;;1854353;76;21171;-83
2022/01/02 08:19:30;;;;;;;6.10;4.25;;;28.90;53.50;;;;;;1806719;77;21165;-82
2022/01/02 08:22:01;;;;;;;8.25;4.55;;;28.80;54.40;;;;;;1847593;76;21143;-83
2022/01/02 08:24:32;;;;;;;5.70;3.87;;;28.80;54.30;;;;;;1855804;76;21611;-82
2022/01/02 08:27:03;;;;;;;8.10;3.95;;;28.80;53.20;;;;;;1823193;77;21163;-82
2022/01/02 08:29:35;;;;;;;4.45;3.83;;;28.80;53.70;;;;;;1798112;78;21085;-82
2022/01/02 08:32:05;;;;;;;5.80;3.77;;;28.70;53.90;;;;;;1828408;76;21675;-83
2022/01/02 08:34:36;;;;;;;7.62;4.25;;;28.60;54.10;;;;;;1849838;76;21231;-83
2022/01/02 08:37:07;;;;;;;6.28;3.95;;;28.60;54.20;;;;;;1832669;76;21687;-82
2022/01/02 08:39:38;;;;;;;6.17;3.87;;;28.60;54.30;;;;;;1833611;77;21223;-82
2022/01/02 08:42:09;;;;;;;5.55;4.08;;;28.60;54.40;;;;;;1830483;76;22325;-82
2022/01/02 08:44:44;;;;;;;5.60;4.10;;;28.50;54.40;;;;;;1837467;77;21219;-81
2022/01/02 08:47:13;;;;;;;6.00;3.83;;;28.50;54.20;;;;;;1829807;76;21264;-82
2022/01/02 08:49:44;;;;;;;5.80;4.12;;;28.50;54.70;;;;;;1834359;76;21122;-81
2022/01/02 08:52:15;;;;;;;6.17;3.70;;;28.40;54.20;;;;;;1842528;77;21190;-82
2022/01/02 08:54:46;;;;;;;6.95;4.10;;;28.30;54.50;;;;;;1845819;77;21115;-83
2022/01/02 08:57:18;;;;;;;5.83;4.42;;;28.30;54.70;;;;;;1828954;77;21089;-82
2022/01/02 08:59:48;;;;;;;6.95;4.25;;;28.30;54.90;;;;;;1836409;77;21244;-82
2022/01/02 09:02:20;;;;;;;5.47;3.80;;;28.20;55.10;;;;;;1843140;77;21198;-82
2022/01/02 09:04:51;;;;;;;5.08;3.98;;;28.20;55.30;;;;;;1844479;77;21616;-82
2022/01/02 09:07:22;;;;;;;9.35;4.22;;;28.20;54.90;;;;;;1844949;77;21113;-83
2022/01/02 09:09:53;;;;;;;8.18;4.08;;;28.20;55.60;;;;;;1840733;76;21117;-82
2022/01/02 09:12:24;;;;;;;5.50;4.10;;;28.20;56.30;;;;;;1843218;77;21179;-82
2022/01/02 09:14:54;;;;;;;6.95;3.65;;;28.30;55.40;;;;;;1837080;76;21225;-83
2022/01/02 09:17:25;;;;;;;6.53;3.62;;;28.30;55.40;;;;;;1843645;77;21148;-82
2022/01/02 09:19:57;;;;;;;6.05;4.17;;;28.40;55.10;;;;;;1846280;75;21587;-83
2022/01/02 09:22:28;;;;;;;7.35;4.47;;;28.40;55.40;;;;;;1821909;77;21666;-82
2022/01/02 09:24:59;;;;;;;5.40;3.75;;;28.40;55.10;;;;;;1846485;76;21135;-82
2022/01/02 09:27:30;;;;;;;5.40;3.75;;;28.40;55.10;;;;;;1825517;76;21244;-83
2022/01/02 09:30:02;;;;;;;7.00;4.17;;;28.40;55.00;;;;;;1835663;77;21120;-82
2022/01/02 09:32:34;;;;;;;6.28;3.80;;;28.40;54.90;;;;;;1836857;76;21242;-82
2022/01/02 09:35:07;;;;;;;10.55;4.12;;;28.40;55.10;;;;;;1841104;77;21105;-82
2022/01/02 09:37:39;;;;;;;7.05;4.90;;;28.30;55.40;;;;;;1852156;77;21136;-81
2022/01/02 09:40:10;;;;;;;8.38;5.00;;;28.30;55.40;;;;;;1832322;76;21241;-82
2022/01/02 09:42:41;;;;;;;6.03;4.33;;;28.20;55.80;;;;;;1840082;77;21235;-82
2022/01/02 09:45:13;;;;;;;8.48;4.62;;;28.20;55.50;;;;;;1851165;77;21326;-82
2022/01/02 09:47:45;;;;;;;7.97;5.40;;;28.10;55.70;;;;;;1833071;76;21130;-82
2022/01/02 09:50:18;;;;;;;8.18;5.70;;;28.10;55.70;;;;;;1847767;77;21144;-81
2022/01/02 09:52:49;;;;;;;8.73;5.65;;;28.00;55.90;;;;;;1848836;77;21171;-81
2022/01/02 09:55:20;;;;;;;8.63;5.67;;;28.00;56.10;;;;;;1830297;76;21168;-82
2022/01/02 09:57:53;;;;;;;7.72;5.85;;;28.00;56.40;;;;;;1844574;77;21175;-82
2022/01/02 10:00:23;;;;;;;9.88;6.20;;;27.90;57.30;;;;;;1848201;77;21278;-81
2022/01/02 10:02:56;;;;;;;9.05;6.78;;;27.90;56.50;;;;;;1837281;77;21712;-82
2022/01/02 10:05:29;;;;;;;11.08;7.60;;;27.80;56.50;;;;;;1813071;77;21179;-82
2022/01/02 10:08:02;;;;;;;11.95;7.95;;;27.80;56.60;;;;;;1838062;77;21473;-81
2022/01/02 10:10:34;;;;;;;13.10;8.33;;;27.80;56.70;;;;;;1802992;77;21628;-82
2022/01/02 10:13:05;;;;;;;13.03;9.08;;;27.70;56.70;;;;;;1791965;78;21295;-82
2022/01/02 10:15:36;;;;;;;12.73;8.75;;;27.70;56.90;;;;;;1805173;77;21212;-82
2022/01/02 10:18:09;;;;;;;14.35;9.73;;;27.70;56.90;;;;;;1841021;77;21094;-82
2022/01/02 10:20:42;;;;;;;11.40;8.98;;;27.70;57.00;;;;;;1824669;76;21176;-81
2022/01/02 10:23:16;;;;;;;15.08;8.98;;;27.60;57.10;;;;;;1846615;77;21235;-81
2022/01/02 10:25:49;;;;;;;11.75;9.48;;;27.60;57.30;;;;;;1791767;78;21581;-81
2022/01/02 10:28:22;;;;;;;17.67;9.35;;;27.60;57.40;;;;;;1804878;78;21091;-82
2022/01/02 10:30:55;;;;;;;12.05;8.93;;;27.50;57.50;;;;;;1816319;76;21241;-82
2022/01/02 10:33:27;;;;;;;13.13;8.38;;;27.50;57.60;;;;;;1842845;76;21109;-81
2022/01/02 10:36:00;;;;;;;11.15;8.05;;;27.50;57.70;;;;;;1841338;77;21179;-83
2022/01/02 10:38:33;;;;;;;11.55;8.23;;;27.40;57.70;;;;;;1789110;78;21128;-83
2022/01/02 10:41:04;;;;;;;10.20;7.53;;;27.40;57.90;;;;;;1808488;78;21123;-85
2022/01/02 10:43:35;;;;;;;13.00;7.47;;;27.40;58.00;;;;;;1796834;78;21277;-82
2022/01/02 10:46:09;;;;;;;10.43;7.60;;;27.40;58.20;;;;;;1797975;77;21239;-81
2022/01/02 10:48:42;;;;;;;12.37;8.00;;;27.30;58.20;;;;;;1796629;78;21146;-80
2022/01/02 10:51:17;;;;;;;10.48;6.87;;;27.30;58.30;;;;;;1798540;78;21160;-81
2022/01/02 10:53:50;;;;;;;13.22;7.62;;;27.20;58.40;;;;;;1799589;78;21260;-81
2022/01/02 10:56:22;;;;;;;12.78;7.35;;;27.20;58.60;;;;;;1811999;78;21178;-81
2022/01/02 10:58:57;;;;;;;11.48;7.65;;;27.20;58.70;;;;;;1797825;78;21207;-82
2022/01/02 11:01:28;;;;;;;9.75;7.40;;;27.20;58.80;;;;;;1794800;78;21104;-81
2022/01/02 11:04:01;;;;;;;13.28;7.45;;;27.20;59.00;;;;;;1790938;78;21265;-82
2022/01/02 11:06:36;;;;;;;19.87;7.67;;;27.10;59.00;;;;;;1803679;78;21083;-82
2022/01/02 11:09:06;;;;;;;13.48;7.55;;;27.10;59.20;;;;;;1811906;77;21216;-81
2022/01/02 11:11:37;;;;;;;12.37;7.67;;;27.00;59.20;;;;;;1832516;77;21192;-81
2022/01/02 11:14:08;;;;;;;10.93;7.55;;;27.00;59.40;;;;;;1837648;77;22005;-82
2022/01/02 11:16:39;;;;;;;14.70;8.65;;;27.00;59.80;;;;;;1844939;77;21568;-82
2022/01/02 11:19:11;;;;;;;15.75;10.30;;;26.90;59.60;;;;;;1837987;77;21164;-81
2022/01/02 11:21:44;;;;;;;19.25;12.80;;;26.90;59.70;;;;;;1838688;77;21620;-82
2022/01/02 11:24:18;;;;;;;20.97;13.80;;;26.90;59.80;;;;;;1816572;78;21174;-81
2022/01/02 11:26:54;;;;;;;26.33;14.50;;;26.90;60.00;;;;;;1805126;78;21481;-82
2022/01/02 11:29:26;;;;;;;22.98;15.88;;;26.80;60.00;;;;;;1802147;79;21604;-81
2022/01/02 11:31:58;;;;;;;25.68;16.85;;;26.80;60.20;;;;;;1825164;77;22729;-82
2022/01/02 11:34:31;;;;;;;24.47;17.12;;;26.80;60.30;;;;;;1823184;76;21095;-82
2022/01/02 11:37:05;;;;;;;26.25;17.42;;;26.70;60.60;;;;;;1822011;77;21200;-82
2022/01/02 11:39:39;;;;;;;22.75;15.08;;;26.70;60.70;;;;;;1791474;78;21197;-82
2022/01/02 11:42:12;;;;;;;24.18;17.87;;;26.70;60.70;;;;;;1785858;78;21184;-82
2022/01/02 11:44:45;;;;;;;35.65;24.50;;;26.70;60.90;;;;;;1825634;76;21087;-83
2022/01/02 11:47:18;;;;;;;44.03;29.02;;;26.70;61.00;;;;;;1839388;77;21217;-83
2022/01/02 11:49:49;;;;;;;29.77;18.60;;;26.70;61.00;;;;;;1806360;77;22018;-82
2022/01/02 11:52:22;;;;;;;21.30;14.95;;;26.70;61.00;;;;;;1825111;77;21154;-83
2022/01/02 11:54:55;;;;;;;26.27;16.32;;;26.60;61.20;;;;;;1836120;77;21190;-82
2022/01/02 11:57:29;;;;;;;23.87;14.53;;;26.60;61.20;;;;;;1808578;78;21170;-82
2022/01/02 11:59:59;;;;;;;24.27;14.47;;;26.60;61.50;;;;;;1829351;77;21150;-82
2022/01/02 12:02:33;;;;;;;24.40;16.75;;;26.60;61.70;;;;;;1842793;77;21065;-82
2022/01/02 12:05:12;;;;;;;48.70;28.25;;;26.50;61.80;;;;;;1843698;77;21665;-82
2022/01/02 12:07:45;;;;;;;67.35;37.25;;;26.50;61.90;;;;;;1834766;76;21630;-82
2022/01/02 12:10:21;;;;;;;76.22;42.75;;;26.50;62.00;;;;;;1798618;78;21128;-81
2022/01/02 12:12:49;;;;;;;67.67;39.75;;;26.50;62.20;;;;;;1799229;78;21222;-82
2022/01/02 12:15:20;;;;;;;63.55;35.80;;;26.40;62.20;;;;;;1793907;79;21145;-81
2022/01/02 12:17:53;;;;;;;56.10;33.08;;;26.40;62.30;;;;;;1845698;76;21232;-81
2022/01/02 12:20:24;;;;;;;47.80;28.67;;;26.40;62.40;;;;;;1831584;77;21272;-81
2022/01/02 12:22:55;;;;;;;37.25;23.70;;;26.40;62.60;;;;;;1840462;76;21116;-81
2022/01/02 12:25:26;;;;;;;36.70;22.62;;;26.30;62.70;;;;;;1832848;77;21212;-81
2022/01/02 12:27:58;;;;;;;28.12;16.37;;;26.30;62.90;;;;;;1844708;77;21508;-81
2022/01/02 12:30:28;;;;;;;23.90;14.50;;;26.30;63.00;;;;;;1833205;77;22128;-81
2022/01/02 12:32:59;;;;;;;22.25;13.80;;;26.20;63.00;;;;;;1849662;77;21571;-81
2022/01/02 12:35:32;;;;;;;21.15;13.08;;;26.20;63.20;;;;;;1835594;77;21129;-81
2022/01/02 12:38:05;;;;;;;27.10;13.40;;;26.20;63.30;;;;;;1802690;78;21223;-81
2022/01/02 12:40:38;;;;;;;23.90;14.93;;;26.20;63.60;;;;;;1823772;77;21189;-81
2022/01/02 12:43:10;;;;;;;22.45;14.55;;;26.20;63.70;;;;;;1844708;77;21213;-81
2022/01/02 12:45:41;;;;;;;25.05;15.10;;;26.10;63.50;;;;;;1804900;78;21091;-81
2022/01/02 12:48:13;;;;;;;26.42;15.15;;;26.10;63.60;;;;;;1838249;77;21633;-82
2022/01/02 12:50:44;;;;;;;20.43;14.15;;;26.10;63.80;;;;;;1843806;77;21137;-81
2022/01/02 12:53:17;;;;;;;23.35;14.65;;;26.10;64.00;;;;;;1820579;77;21190;-82
2022/01/02 12:55:50;;;;;;;19.75;12.75;;;26.10;64.10;;;;;;1821698;77;21251;-81
2022/01/02 12:58:23;;;;;;;24.65;13.43;;;26.10;64.10;;;;;;1827688;77;21114;-81
2022/01/02 13:00:54;;;;;;;19.23;12.13;;;26.10;64.10;;;;;;1831707;77;21582;-82
2022/01/02 13:03:25;;;;;;;20.60;12.33;;;26.00;63.90;;;;;;1805867;78;21084;-81
2022/01/02 13:05:56;;;;;;;23.32;12.63;;;26.00;64.00;;;;;;1799992;78;21190;-81
2022/01/02 13:08:27;;;;;;;27.20;13.83;;;26.00;64.10;;;;;;1838962;77;21602;-82
2022/01/02 13:11:00;;;;;;;22.27;12.45;;;26.00;64.10;;;;;;1837577;77;21174;-83